sensor_id;sensor_type;location;lat;lon;timestamp;pressure;altitude;pressure_sealevel;temperature;humidity
41306;BME280;27051;50.376;19.152;2023-02-20T00:01:53;98689.40;;;3.34;59.46
41306;BME280;27051;50.376;19.152;2023-02-20T00:04:20;98685.50;;;3.38;59.53
41306;BME280;27051;50.376;19.152;2023-02-20T00:06:49;98682.17;;;3.42;59.39
41306;BME280;27051;50.376;19.152;2023-02-20T00:09:18;98680.85;;;3.42;59.49
41306;BME280;27051;50.376;19.152;2023-02-20T00:11:45;98678.64;;;3.44;59.38
41306;BME280;27051;50.376;19.152;2023-02-20T00:14:11;98681.44;;;3.48;59.38
41306;BME280;27051;50.376;19.152;2023-02-20T00:16:39;98676.16;;;3.50;59.48
41306;BME280;27051;50.376;19.152;2023-02-20T00:19:05;98678.71;;;3.50;59.40
41306;BME280;27051;50.376;19.152;2023-02-20T00:21:32;98675.29;;;3.46;59.36
41306;BME280;27051;50.376;19.152;2023-02-20T00:23:58;98674.27;;;3.48;59.30
41306;BME280;27051;50.376;19.152;2023-02-20T00:26:25;98672.56;;;3.47;59.37
41306;BME280;27051;50.376;19.152;2023-02-20T00:28:52;98677.48;;;3.50;59.41
41306;BME280;27051;50.376;19.152;2023-02-20T00:31:22;98674.03;;;3.51;59.44
41306;BME280;27051;50.376;19.152;2023-02-20T00:33:50;98675.48;;;3.50;59.34
41306;BME280;27051;50.376;19.152;2023-02-20T00:36:19;98675.46;;;3.49;59.32
41306;BME280;27051;50.376;19.152;2023-02-20T00:38:48;98682.21;;;3.51;59.38
41306;BME280;27051;50.376;19.152;2023-02-20T00:41:16;98678.15;;;3.54;59.37
41306;BME280;27051;50.376;19.152;2023-02-20T00:43:42;98674.66;;;3.58;59.49
41306;BME280;27051;50.376;19.152;2023-02-20T00:46:16;98674.75;;;3.60;59.25
41306;BME280;27051;50.376;19.152;2023-02-20T00:48:44;98676.75;;;3.58;59.36
41306;BME280;27051;50.376;19.152;2023-02-20T00:51:11;98675.58;;;3.59;59.38
41306;BME280;27051;50.376;19.152;2023-02-20T00:53:38;98676.30;;;3.56;59.16
41306;BME280;27051;50.376;19.152;2023-02-20T00:56:04;98677.14;;;3.54;59.40
41306;BME280;27051;50.376;19.152;2023-02-20T00:58:31;98683.52;;;3.55;59.36
41306;BME280;27051;50.376;19.152;2023-02-20T01:00:59;98686.48;;;3.56;59.43
41306;BME280;27051;50.376;19.152;2023-02-20T01:03:25;98686.98;;;3.58;59.45
41306;BME280;27051;50.376;19.152;2023-02-20T01:05:54;98686.99;;;3.58;59.45
41306;BME280;27051;50.376;19.152;2023-02-20T01:08:22;98681.24;;;3.60;59.48
41306;BME280;27051;50.376;19.152;2023-02-20T01:10:48;98682.35;;;3.61;59.58
41306;BME280;27051;50.376;19.152;2023-02-20T01:13:16;98681.95;;;3.63;59.41
41306;BME280;27051;50.376;19.152;2023-02-20T01:15:43;98680.30;;;3.59;59.10
41306;BME280;27051;50.376;19.152;2023-02-20T01:18:10;98675.75;;;3.55;59.37
41306;BME280;27051;50.376;19.152;2023-02-20T01:20:37;98668.02;;;3.58;59.53
41306;BME280;27051;50.376;19.152;2023-02-20T01:23:05;98668.61;;;3.63;59.48
41306;BME280;27051;50.376;19.152;2023-02-20T01:25:32;98667.65;;;3.64;59.42
41306;BME280;27051;50.376;19.152;2023-02-20T01:27:59;98664.17;;;3.61;59.36
41306;BME280;27051;50.376;19.152;2023-02-20T01:30:27;98674.38;;;3.61;59.40
41306;BME280;27051;50.376;19.152;2023-02-20T01:32:53;98672.94;;;3.60;59.40
41306;BME280;27051;50.376;19.152;2023-02-20T01:35:21;98673.67;;;3.62;59.35
41306;BME280;27051;50.376;19.152;2023-02-20T01:37:47;98668.47;;;3.61;59.34
41306;BME280;27051;50.376;19.152;2023-02-20T01:40:18;98668.31;;;3.60;59.40
41306;BME280;27051;50.376;19.152;2023-02-20T01:42:46;98664.73;;;3.64;59.27
41306;BME280;27051;50.376;19.152;2023-02-20T01:45:24;98660.90;;;3.63;59.29
41306;BME280;27051;50.376;19.152;2023-02-20T01:47:54;98663.98;;;3.64;59.27
41306;BME280;27051;50.376;19.152;2023-02-20T01:50:45;98667.67;;;3.62;59.30
41306;BME280;27051;50.376;19.152;2023-02-20T01:53:15;98663.17;;;3.59;59.33
41306;BME280;27051;50.376;19.152;2023-02-20T01:55:53;98664.96;;;3.61;59.43
41306;BME280;27051;50.376;19.152;2023-02-20T01:58:30;98661.17;;;3.63;59.31
41306;BME280;27051;50.376;19.152;2023-02-20T02:01:02;98653.92;;;3.65;59.47
41306;BME280;27051;50.376;19.152;2023-02-20T02:03:33;98646.25;;;3.68;59.37
41306;BME280;27051;50.376;19.152;2023-02-20T02:06:04;98635.76;;;3.68;59.38
41306;BME280;27051;50.376;19.152;2023-02-20T02:08:35;98629.73;;;3.72;59.33
41306;BME280;27051;50.376;19.152;2023-02-20T02:11:20;98627.36;;;3.75;59.28
41306;BME280;27051;50.376;19.152;2023-02-20T02:13:49;98617.75;;;3.78;59.25
41306;BME280;27051;50.376;19.152;2023-02-20T02:19:44;98605.55;;;3.80;59.17
41306;BME280;27051;50.376;19.152;2023-02-20T02:33:51;98591.14;;;3.85;59.26
41306;BME280;27051;50.376;19.152;2023-02-20T02:42:19;98585.34;;;3.86;58.99
41306;BME280;27051;50.376;19.152;2023-02-20T02:44:56;98584.23;;;3.85;59.21
41306;BME280;27051;50.376;19.152;2023-02-20T02:47:34;98582.38;;;3.89;59.12
41306;BME280;27051;50.376;19.152;2023-02-20T02:50:09;98582.92;;;3.94;59.06
41306;BME280;27051;50.376;19.152;2023-02-20T02:52:37;98589.72;;;4.02;59.03
41306;BME280;27051;50.376;19.152;2023-02-20T02:55:05;98595.62;;;4.04;58.89
41306;BME280;27051;50.376;19.152;2023-02-20T02:57:32;98600.13;;;4.01;58.70
41306;BME280;27051;50.376;19.152;2023-02-20T03:00:16;98603.21;;;4.01;58.69
41306;BME280;27051;50.376;19.152;2023-02-20T03:05:43;98587.33;;;4.04;58.80
41306;BME280;27051;50.376;19.152;2023-02-20T03:08:42;98578.35;;;4.03;58.72
41306;BME280;27051;50.376;19.152;2023-02-20T03:11:15;98578.83;;;4.03;58.76
41306;BME280;27051;50.376;19.152;2023-02-20T03:16:20;98567.13;;;4.02;58.63
41306;BME280;27051;50.376;19.152;2023-02-20T03:18:49;98557.39;;;3.98;58.62
41306;BME280;27051;50.376;19.152;2023-02-20T03:21:20;98557.69;;;3.96;58.61
41306;BME280;27051;50.376;19.152;2023-02-20T03:23:54;98558.67;;;3.88;58.59
41306;BME280;27051;50.376;19.152;2023-02-20T03:26:27;98558.45;;;3.85;58.76
41306;BME280;27051;50.376;19.152;2023-02-20T03:29:05;98562.25;;;3.82;58.83
41306;BME280;27051;50.376;19.152;2023-02-20T03:32:04;98564.05;;;3.78;58.83
41306;BME280;27051;50.376;19.152;2023-02-20T03:34:32;98560.03;;;3.80;58.96
41306;BME280;27051;50.376;19.152;2023-02-20T03:37:17;98558.27;;;3.76;58.88
41306;BME280;27051;50.376;19.152;2023-02-20T03:39:48;98563.32;;;3.78;58.99
41306;BME280;27051;50.376;19.152;2023-02-20T03:42:19;98561.92;;;3.78;58.96
41306;BME280;27051;50.376;19.152;2023-02-20T03:44:47;98556.59;;;3.80;58.98
41306;BME280;27051;50.376;19.152;2023-02-20T03:47:17;98563.24;;;3.78;58.88
41306;BME280;27051;50.376;19.152;2023-02-20T03:49:47;98564.80;;;3.77;58.87
41306;BME280;27051;50.376;19.152;2023-02-20T03:52:16;98564.20;;;3.74;58.90
41306;BME280;27051;50.376;19.152;2023-02-20T03:54:43;98559.60;;;3.72;59.09
41306;BME280;27051;50.376;19.152;2023-02-20T03:57:32;98551.77;;;3.74;59.00
41306;BME280;27051;50.376;19.152;2023-02-20T04:00:07;98554.58;;;3.68;58.81
41306;BME280;27051;50.376;19.152;2023-02-20T04:02:39;98555.47;;;3.65;58.99
41306;BME280;27051;50.376;19.152;2023-02-20T04:05:11;98546.26;;;3.66;59.17
41306;BME280;27051;50.376;19.152;2023-02-20T04:07:44;98545.81;;;3.67;59.12
41306;BME280;27051;50.376;19.152;2023-02-20T04:10:24;98541.30;;;3.68;58.90
41306;BME280;27051;50.376;19.152;2023-02-20T04:12:52;98540.61;;;3.63;58.94
41306;BME280;27051;50.376;19.152;2023-02-20T04:15:21;98538.64;;;3.58;58.99
41306;BME280;27051;50.376;19.152;2023-02-20T04:17:54;98538.38;;;3.59;59.11
41306;BME280;27051;50.376;19.152;2023-02-20T04:20:23;98540.14;;;3.57;58.92
41306;BME280;27051;50.376;19.152;2023-02-20T04:22:55;98538.02;;;3.55;58.93
41306;BME280;27051;50.376;19.152;2023-02-20T04:25:39;98538.83;;;3.44;58.79
41306;BME280;27051;50.376;19.152;2023-02-20T04:28:12;98533.52;;;3.31;59.06
41306;BME280;27051;50.376;19.152;2023-02-20T04:30:40;98528.98;;;3.35;59.13
41306;BME280;27051;50.376;19.152;2023-02-20T04:33:11;98526.17;;;3.34;59.06
41306;BME280;27051;50.376;19.152;2023-02-20T04:35:39;98524.24;;;3.30;59.16
41306;BME280;27051;50.376;19.152;2023-02-20T04:38:08;98529.38;;;3.32;59.09
41306;BME280;27051;50.376;19.152;2023-02-20T04:40:36;98527.15;;;3.32;59.10
41306;BME280;27051;50.376;19.152;2023-02-20T04:43:04;98525.76;;;3.32;59.12
41306;BME280;27051;50.376;19.152;2023-02-20T04:45:32;98526.13;;;3.32;59.06
41306;BME280;27051;50.376;19.152;2023-02-20T04:48:03;98516.23;;;3.29;58.98
41306;BME280;27051;50.376;19.152;2023-02-20T04:50:31;98511.90;;;3.26;58.97
41306;BME280;27051;50.376;19.152;2023-02-20T04:53:00;98508.87;;;3.21;58.94
41306;BME280;27051;50.376;19.152;2023-02-20T04:55:27;98508.55;;;3.14;58.96
41306;BME280;27051;50.376;19.152;2023-02-20T04:57:54;98503.08;;;3.10;59.03
41306;BME280;27051;50.376;19.152;2023-02-20T05:00:22;98499.23;;;3.12;59.21
41306;BME280;27051;50.376;19.152;2023-02-20T05:02:53;98500.52;;;3.17;59.17
41306;BME280;27051;50.376;19.152;2023-02-20T05:05:23;98504.43;;;3.19;59.17
41306;BME280;27051;50.376;19.152;2023-02-20T05:08:04;98500.96;;;3.24;59.18
41306;BME280;27051;50.376;19.152;2023-02-20T05:10:32;98489.52;;;3.28;59.15
41306;BME280;27051;50.376;19.152;2023-02-20T05:13:04;98480.23;;;3.32;58.97
41306;BME280;27051;50.376;19.152;2023-02-20T05:15:31;98473.33;;;3.36;58.99
41306;BME280;27051;50.376;19.152;2023-02-20T05:17:58;98474.23;;;3.37;58.78
41306;BME280;27051;50.376;19.152;2023-02-20T05:20:26;98474.77;;;3.41;59.00
41306;BME280;27051;50.376;19.152;2023-02-20T05:22:52;98475.30;;;3.45;58.87
41306;BME280;27051;50.376;19.152;2023-02-20T05:25:19;98478.75;;;3.47;58.81
41306;BME280;27051;50.376;19.152;2023-02-20T05:27:50;98480.05;;;3.49;58.89
41306;BME280;27051;50.376;19.152;2023-02-20T05:30:16;98476.81;;;3.54;58.83
41306;BME280;27051;50.376;19.152;2023-02-20T05:32:43;98475.95;;;3.55;58.74
41306;BME280;27051;50.376;19.152;2023-02-20T05:35:11;98477.83;;;3.58;58.53
41306;BME280;27051;50.376;19.152;2023-02-20T05:37:39;98481.16;;;3.60;58.74
41306;BME280;27051;50.376;19.152;2023-02-20T05:40:07;98487.17;;;3.62;58.50
41306;BME280;27051;50.376;19.152;2023-02-20T05:42:33;98484.95;;;3.62;58.55
41306;BME280;27051;50.376;19.152;2023-02-20T05:45:00;98484.77;;;3.64;58.64
41306;BME280;27051;50.376;19.152;2023-02-20T05:47:31;98484.47;;;3.72;58.56
41306;BME280;27051;50.376;19.152;2023-02-20T05:50:02;98487.63;;;3.79;58.20
41306;BME280;27051;50.376;19.152;2023-02-20T05:52:29;98489.85;;;3.80;58.17
41306;BME280;27051;50.376;19.152;2023-02-20T05:54:55;98490.14;;;3.83;58.10
41306;BME280;27051;50.376;19.152;2023-02-20T05:57:21;98493.39;;;3.87;57.96
41306;BME280;27051;50.376;19.152;2023-02-20T05:59:48;98486.02;;;3.84;57.84
41306;BME280;27051;50.376;19.152;2023-02-20T06:02:14;98481.73;;;3.83;57.96
41306;BME280;27051;50.376;19.152;2023-02-20T06:04:42;98483.42;;;3.83;57.95
41306;BME280;27051;50.376;19.152;2023-02-20T06:07:09;98480.48;;;3.82;57.85
41306;BME280;27051;50.376;19.152;2023-02-20T06:09:42;98479.27;;;3.79;57.64
41306;BME280;27051;50.376;19.152;2023-02-20T06:12:08;98484.77;;;3.74;57.74
41306;BME280;27051;50.376;19.152;2023-02-20T06:14:35;98498.42;;;3.74;57.81
41306;BME280;27051;50.376;19.152;2023-02-20T06:17:02;98498.17;;;3.78;57.94
41306;BME280;27051;50.376;19.152;2023-02-20T06:19:31;98502.80;;;3.82;57.72
41306;BME280;27051;50.376;19.152;2023-02-20T06:21:58;98502.67;;;3.87;57.83
41306;BME280;27051;50.376;19.152;2023-02-20T06:24:25;98498.64;;;3.92;57.62
41306;BME280;27051;50.376;19.152;2023-02-20T06:26:51;98492.58;;;3.92;57.53
41306;BME280;27051;50.376;19.152;2023-02-20T06:29:18;98491.16;;;3.91;57.40
41306;BME280;27051;50.376;19.152;2023-02-20T06:31:45;98486.98;;;3.89;57.30
41306;BME280;27051;50.376;19.152;2023-02-20T06:34:15;98486.63;;;3.83;57.14
41306;BME280;27051;50.376;19.152;2023-02-20T06:36:41;98482.30;;;3.84;57.32
41306;BME280;27051;50.376;19.152;2023-02-20T06:39:10;98477.20;;;3.88;57.26
41306;BME280;27051;50.376;19.152;2023-02-20T06:41:37;98473.39;;;3.90;57.29
41306;BME280;27051;50.376;19.152;2023-02-20T06:44:03;98473.50;;;3.91;57.16
41306;BME280;27051;50.376;19.152;2023-02-20T06:46:29;98470.66;;;3.88;57.32
41306;BME280;27051;50.376;19.152;2023-02-20T06:48:57;98474.17;;;3.92;57.34
41306;BME280;27051;50.376;19.152;2023-02-20T06:51:27;98468.47;;;3.97;57.37
41306;BME280;27051;50.376;19.152;2023-02-20T06:53:55;98470.89;;;4.03;57.12
41306;BME280;27051;50.376;19.152;2023-02-20T06:56:26;98473.16;;;4.00;57.09
41306;BME280;27051;50.376;19.152;2023-02-20T06:58:54;98478.52;;;4.01;57.30
41306;BME280;27051;50.376;19.152;2023-02-20T07:01:24;98480.76;;;4.05;57.28
41306;BME280;27051;50.376;19.152;2023-02-20T07:03:52;98483.67;;;4.09;57.20
41306;BME280;27051;50.376;19.152;2023-02-20T07:06:18;98476.51;;;4.20;57.30
41306;BME280;27051;50.376;19.152;2023-02-20T07:08:45;98474.27;;;4.32;57.23
41306;BME280;27051;50.376;19.152;2023-02-20T07:11:13;98463.55;;;4.41;57.07
41306;BME280;27051;50.376;19.152;2023-02-20T07:13:39;98462.98;;;4.54;56.92
41306;BME280;27051;50.376;19.152;2023-02-20T07:16:07;98467.46;;;4.60;56.63
41306;BME280;27051;50.376;19.152;2023-02-20T07:18:34;98463.94;;;4.68;56.96
41306;BME280;27051;50.376;19.152;2023-02-20T07:21:00;98466.88;;;4.77;56.65
41306;BME280;27051;50.376;19.152;2023-02-20T07:23:27;98459.58;;;4.84;56.55
41306;BME280;27051;50.376;19.152;2023-02-20T07:25:56;98452.27;;;4.87;56.18
41306;BME280;27051;50.376;19.152;2023-02-20T07:28:24;98449.98;;;4.87;56.30
41306;BME280;27051;50.376;19.152;2023-02-20T07:30:55;98442.02;;;4.89;56.21
41306;BME280;27051;50.376;19.152;2023-02-20T07:33:23;98437.37;;;4.95;56.21
41306;BME280;27051;50.376;19.152;2023-02-20T07:35:52;98434.08;;;4.98;56.24
41306;BME280;27051;50.376;19.152;2023-02-20T07:38:19;98432.52;;;5.07;55.93
41306;BME280;27051;50.376;19.152;2023-02-20T07:40:46;98433.02;;;5.12;55.89
41306;BME280;27051;50.376;19.152;2023-02-20T07:43:14;98434.09;;;5.15;56.07
41306;BME280;27051;50.376;19.152;2023-02-20T07:45:42;98437.34;;;5.18;55.93
41306;BME280;27051;50.376;19.152;2023-02-20T07:48:09;98429.64;;;5.26;56.15
41306;BME280;27051;50.376;19.152;2023-02-20T07:50:36;98413.61;;;5.34;55.75
41306;BME280;27051;50.376;19.152;2023-02-20T07:53:02;98399.48;;;5.39;55.24
41306;BME280;27051;50.376;19.152;2023-02-20T07:55:29;98389.33;;;5.40;55.47
41306;BME280;27051;50.376;19.152;2023-02-20T07:57:59;98385.98;;;5.47;55.72
41306;BME280;27051;50.376;19.152;2023-02-20T08:00:26;98384.16;;;5.73;55.49
41306;BME280;27051;50.376;19.152;2023-02-20T08:02:53;98387.55;;;6.07;55.30
41306;BME280;27051;50.376;19.152;2023-02-20T08:05:20;98389.00;;;6.46;55.63
41306;BME280;27051;50.376;19.152;2023-02-20T08:07:47;98390.59;;;6.70;54.89
41306;BME280;27051;50.376;19.152;2023-02-20T08:10:15;98385.48;;;6.78;54.70
41306;BME280;27051;50.376;19.152;2023-02-20T08:12:42;98393.77;;;6.78;54.90
41306;BME280;27051;50.376;19.152;2023-02-20T08:15:10;98386.52;;;6.79;55.19
41306;BME280;27051;50.376;19.152;2023-02-20T08:17:40;98390.36;;;6.79;54.91
41306;BME280;27051;50.376;19.152;2023-02-20T08:20:07;98395.54;;;6.78;55.03
41306;BME280;27051;50.376;19.152;2023-02-20T08:22:36;98388.45;;;6.73;54.88
41306;BME280;27051;50.376;19.152;2023-02-20T08:25:05;98384.63;;;6.61;54.47
41306;BME280;27051;50.376;19.152;2023-02-20T08:27:34;98380.23;;;6.49;54.78
41306;BME280;27051;50.376;19.152;2023-02-20T08:30:02;98376.82;;;6.53;55.17
41306;BME280;27051;50.376;19.152;2023-02-20T08:32:29;98377.65;;;6.66;55.15
41306;BME280;27051;50.376;19.152;2023-02-20T08:34:56;98377.46;;;6.72;55.29
41306;BME280;27051;50.376;19.152;2023-02-20T08:37:23;98372.20;;;6.68;55.17
41306;BME280;27051;50.376;19.152;2023-02-20T08:39:50;98372.25;;;6.65;55.27
41306;BME280;27051;50.376;19.152;2023-02-20T08:42:17;98371.29;;;6.68;55.25
41306;BME280;27051;50.376;19.152;2023-02-20T08:44:44;98355.48;;;6.70;55.01
41306;BME280;27051;50.376;19.152;2023-02-20T08:47:11;98358.92;;;6.78;55.29
41306;BME280;27051;50.376;19.152;2023-02-20T08:49:37;98360.38;;;6.94;55.15
41306;BME280;27051;50.376;19.152;2023-02-20T08:52:03;98341.33;;;7.07;55.19
41306;BME280;27051;50.376;19.152;2023-02-20T08:54:30;98340.64;;;7.18;54.76
41306;BME280;27051;50.376;19.152;2023-02-20T08:56:56;98327.47;;;7.25;54.41
41306;BME280;27051;50.376;19.152;2023-02-20T08:59:22;98330.21;;;7.26;54.19
41306;BME280;27051;50.376;19.152;2023-02-20T09:01:48;98328.93;;;7.18;54.06
41306;BME280;27051;50.376;19.152;2023-02-20T09:04:15;98330.83;;;7.15;54.49
41306;BME280;27051;50.376;19.152;2023-02-20T09:06:41;98324.55;;;7.16;54.63
41306;BME280;27051;50.376;19.152;2023-02-20T09:09:08;98316.00;;;7.20;54.88
41306;BME280;27051;50.376;19.152;2023-02-20T09:11:34;98310.98;;;7.28;54.54
41306;BME280;27051;50.376;19.152;2023-02-20T09:14:01;98307.48;;;7.32;54.31
41306;BME280;27051;50.376;19.152;2023-02-20T09:16:27;98305.55;;;7.28;54.39
41306;BME280;27051;50.376;19.152;2023-02-20T09:19:09;98306.20;;;7.21;54.16
41306;BME280;27051;50.376;19.152;2023-02-20T09:21:37;98314.73;;;7.12;54.39
41306;BME280;27051;50.376;19.152;2023-02-20T09:24:04;98316.80;;;7.01;54.43
41306;BME280;27051;50.376;19.152;2023-02-20T09:26:31;98319.02;;;6.91;54.54
41306;BME280;27051;50.376;19.152;2023-02-20T09:28:59;98306.88;;;6.86;54.73
41306;BME280;27051;50.376;19.152;2023-02-20T09:31:28;98299.66;;;6.84;54.69
41306;BME280;27051;50.376;19.152;2023-02-20T09:33:55;98301.80;;;6.81;54.77
41306;BME280;27051;50.376;19.152;2023-02-20T09:36:21;98287.80;;;6.75;55.06
41306;BME280;27051;50.376;19.152;2023-02-20T09:38:47;98279.70;;;6.78;55.30
41306;BME280;27051;50.376;19.152;2023-02-20T09:41:27;98272.72;;;6.81;55.19
41306;BME280;27051;50.376;19.152;2023-02-20T09:44:13;98269.13;;;6.79;55.24
41306;BME280;27051;50.376;19.152;2023-02-20T09:46:44;98268.46;;;6.76;55.01
41306;BME280;27051;50.376;19.152;2023-02-20T09:49:19;98264.23;;;6.72;55.35
41306;BME280;27051;50.376;19.152;2023-02-20T09:51:51;98267.39;;;6.72;55.41
41306;BME280;27051;50.376;19.152;2023-02-20T09:54:35;98264.26;;;6.74;55.63
41306;BME280;27051;50.376;19.152;2023-02-20T09:57:08;98261.88;;;6.78;55.70
41306;BME280;27051;50.376;19.152;2023-02-20T09:59:40;98262.36;;;6.77;55.56
41306;BME280;27051;50.376;19.152;2023-02-20T10:02:27;98260.48;;;6.71;55.66
41306;BME280;27051;50.376;19.152;2023-02-20T10:05:01;98253.14;;;6.68;55.81
41306;BME280;27051;50.376;19.152;2023-02-20T10:07:37;98245.71;;;6.68;55.82
41306;BME280;27051;50.376;19.152;2023-02-20T10:10:27;98238.20;;;6.67;55.90
41306;BME280;27051;50.376;19.152;2023-02-20T10:19:03;98225.11;;;6.68;56.07
41306;BME280;27051;50.376;19.152;2023-02-20T10:21:55;98217.15;;;6.77;56.26
41306;BME280;27051;50.376;19.152;2023-02-20T10:27:11;98210.29;;;7.04;56.00
41306;BME280;27051;50.376;19.152;2023-02-20T10:29:43;98200.24;;;7.11;55.73
41306;BME280;27051;50.376;19.152;2023-02-20T10:32:18;98193.25;;;7.11;55.69
41306;BME280;27051;50.376;19.152;2023-02-20T10:35:08;98189.80;;;7.08;55.82
41306;BME280;27051;50.376;19.152;2023-02-20T10:37:42;98183.10;;;7.18;55.90
41306;BME280;27051;50.376;19.152;2023-02-20T10:40:28;98188.73;;;7.29;55.72
41306;BME280;27051;50.376;19.152;2023-02-20T10:43:17;98189.05;;;7.40;55.50
41306;BME280;27051;50.376;19.152;2023-02-20T10:45:53;98181.25;;;7.42;55.42
41306;BME280;27051;50.376;19.152;2023-02-20T10:48:25;98175.96;;;7.43;55.49
41306;BME280;27051;50.376;19.152;2023-02-20T10:51:21;98175.86;;;7.48;55.72
41306;BME280;27051;50.376;19.152;2023-02-20T10:54:04;98159.52;;;7.57;55.49
41306;BME280;27051;50.376;19.152;2023-02-20T10:56:41;98149.33;;;7.71;55.63
41306;BME280;27051;50.376;19.152;2023-02-20T10:59:18;98147.34;;;7.97;55.02
41306;BME280;27051;50.376;19.152;2023-02-20T11:01:48;98128.41;;;8.09;54.62
41306;BME280;27051;50.376;19.152;2023-02-20T11:04:24;98115.75;;;8.14;54.66
41306;BME280;27051;50.376;19.152;2023-02-20T11:07:15;98116.13;;;8.21;54.73
41306;BME280;27051;50.376;19.152;2023-02-20T11:09:41;98110.51;;;8.31;54.39
41306;BME280;27051;50.376;19.152;2023-02-20T11:12:20;98107.13;;;8.40;54.35
41306;BME280;27051;50.376;19.152;2023-02-20T11:14:49;98097.98;;;8.48;54.36
41306;BME280;27051;50.376;19.152;2023-02-20T11:17:19;98094.67;;;8.58;54.39
41306;BME280;27051;50.376;19.152;2023-02-20T11:19:48;98091.97;;;8.63;54.48
41306;BME280;27051;50.376;19.152;2023-02-20T11:22:17;98097.12;;;8.62;54.16
41306;BME280;27051;50.376;19.152;2023-02-20T11:24:45;98075.86;;;8.50;54.33
41306;BME280;27051;50.376;19.152;2023-02-20T11:27:24;98072.60;;;8.39;54.54
41306;BME280;27051;50.376;19.152;2023-02-20T11:30:15;98048.44;;;8.36;54.96
41306;BME280;27051;50.376;19.152;2023-02-20T11:32:47;98047.83;;;8.43;55.03
41306;BME280;27051;50.376;19.152;2023-02-20T11:37:51;98036.94;;;8.37;54.76
41306;BME280;27051;50.376;19.152;2023-02-20T11:40:36;98020.23;;;8.33;54.79
41306;BME280;27051;50.376;19.152;2023-02-20T11:43:30;98008.75;;;8.32;54.95
41306;BME280;27051;50.376;19.152;2023-02-20T11:46:18;98008.20;;;8.40;55.11
41306;BME280;27051;50.376;19.152;2023-02-20T11:49:06;97995.67;;;8.44;55.04
41306;BME280;27051;50.376;19.152;2023-02-20T11:51:45;97982.28;;;8.40;55.15
41306;BME280;27051;50.376;19.152;2023-02-20T11:54:15;97970.20;;;8.33;55.33
41306;BME280;27051;50.376;19.152;2023-02-20T12:02:21;97949.60;;;8.40;55.46
41306;BME280;27051;50.376;19.152;2023-02-20T12:05:13;97953.70;;;8.39;55.62
41306;BME280;27051;50.376;19.152;2023-02-20T12:07:43;97955.58;;;8.46;55.85
41306;BME280;27051;50.376;19.152;2023-02-20T12:10:39;97964.27;;;8.50;55.85
41306;BME280;27051;50.376;19.152;2023-02-20T12:13:12;97946.35;;;8.50;55.84
41306;BME280;27051;50.376;19.152;2023-02-20T12:15:38;97947.61;;;8.48;55.89
41306;BME280;27051;50.376;19.152;2023-02-20T12:20:43;97945.52;;;8.48;56.21
41306;BME280;27051;50.376;19.152;2023-02-20T12:25:58;97933.81;;;8.76;56.27
41306;BME280;27051;50.376;19.152;2023-02-20T12:28:44;97918.23;;;8.98;56.05
41306;BME280;27051;50.376;19.152;2023-02-20T12:37:22;97876.48;;;9.24;55.61
41306;BME280;27051;50.376;19.152;2023-02-20T12:42:56;97880.72;;;9.45;55.38
41306;BME280;27051;50.376;19.152;2023-02-20T12:48:30;97869.95;;;10.11;54.76
41306;BME280;27051;50.376;19.152;2023-02-20T12:53:49;97863.52;;;11.76;52.53
41306;BME280;27051;50.376;19.152;2023-02-20T12:58:57;97839.83;;;12.45;51.94
41306;BME280;27051;50.376;19.152;2023-02-20T13:01:26;97853.70;;;12.85;50.73
41306;BME280;27051;50.376;19.152;2023-02-20T13:07:05;97837.11;;;13.76;48.07
41306;BME280;27051;50.376;19.152;2023-02-20T13:09:38;97826.58;;;13.91;48.79
41306;BME280;27051;50.376;19.152;2023-02-20T13:12:13;97823.13;;;14.47;47.51
41306;BME280;27051;50.376;19.152;2023-02-20T13:17:51;97806.65;;;16.56;45.33
41306;BME280;27051;50.376;19.152;2023-02-20T13:20:24;97792.02;;;17.74;43.78
41306;BME280;27051;50.376;19.152;2023-02-20T13:25:49;97798.16;;;17.26;43.63
41306;BME280;27051;50.376;19.152;2023-02-20T13:33:36;97776.86;;;14.71;44.33
41306;BME280;27051;50.376;19.152;2023-02-20T13:36:04;97768.03;;;14.80;45.44
41306;BME280;27051;50.376;19.152;2023-02-20T13:38:31;97769.41;;;14.79;43.87
41306;BME280;27051;50.376;19.152;2023-02-20T13:41:08;97753.45;;;14.56;45.18
41306;BME280;27051;50.376;19.152;2023-02-20T13:43:36;97742.38;;;14.29;45.43
41306;BME280;27051;50.376;19.152;2023-02-20T13:56:59;97712.38;;;12.06;48.04
41306;BME280;27051;50.376;19.152;2023-02-20T13:59:00;97712.51;;;11.60;48.79
41306;BME280;27051;50.376;19.152;2023-02-20T14:01:26;97697.19;;;11.32;49.17
41306;BME280;27051;50.376;19.152;2023-02-20T14:04:06;97688.78;;;11.05;49.80
41306;BME280;27051;50.376;19.152;2023-02-20T14:06:33;97671.23;;;10.75;50.47
41306;BME280;27051;50.376;19.152;2023-02-20T14:09:12;97644.92;;;10.49;50.77
41306;BME280;27051;50.376;19.152;2023-02-20T14:11:40;97637.63;;;10.29;51.42
41306;BME280;27051;50.376;19.152;2023-02-20T14:14:25;97640.91;;;10.14;51.95
41306;BME280;27051;50.376;19.152;2023-02-20T14:17:22;97628.86;;;9.98;52.27
41306;BME280;27051;50.376;19.152;2023-02-20T14:19:55;97631.69;;;9.87;52.72
41306;BME280;27051;50.376;19.152;2023-02-20T14:22:30;97632.92;;;9.92;52.43
41306;BME280;27051;50.376;19.152;2023-02-20T14:25:02;97619.64;;;10.09;52.35
41306;BME280;27051;50.376;19.152;2023-02-20T14:27:39;97621.08;;;10.18;52.34
41306;BME280;27051;50.376;19.152;2023-02-20T14:32:35;97613.39;;;10.36;52.25
41306;BME280;27051;50.376;19.152;2023-02-20T14:35:12;97604.77;;;10.52;51.99
41306;BME280;27051;50.376;19.152;2023-02-20T14:40:36;97599.57;;;10.85;51.79
41306;BME280;27051;50.376;19.152;2023-02-20T14:43:07;97601.23;;;10.77;51.84
41306;BME280;27051;50.376;19.152;2023-02-20T14:45:37;97600.43;;;10.68;52.01
41306;BME280;27051;50.376;19.152;2023-02-20T14:48:04;97592.14;;;10.57;52.34
41306;BME280;27051;50.376;19.152;2023-02-20T14:50:33;97587.59;;;10.46;52.66
41306;BME280;27051;50.376;19.152;2023-02-20T14:53:13;97569.23;;;10.39;52.62
41306;BME280;27051;50.376;19.152;2023-02-20T14:55:41;97567.98;;;10.31;53.03
41306;BME280;27051;50.376;19.152;2023-02-20T14:58:12;97573.44;;;10.22;53.04